Time;durP1;ratioP1;P1;durP2;ratioP2;P2;SDS_P1;SDS_P2;PMS_P1;PMS_P2;Temp;Humidity;BMP_temperature;BMP_pressure;BME280_temperature;BME280_humidity;BME280_pressure;Samples;Min_cycle;Max_cycle;Signal;HPM_P1;HPM_P2
2022/06/03 00:02:08;;;;;;;12.40;9.93;;;14.60;66.10;;;;;;4998069;28;20046;-75
2022/06/03 00:04:37;;;;;;;12.55;9.98;;;14.50;65.90;;;;;;5004043;28;20042;-75
2022/06/03 00:07:43;;;;;;;13.55;10.07;;;14.50;66.00;;;;;;4994660;28;20081;-76
2022/06/03 00:10:30;;;;;;;13.30;9.20;;;14.50;65.90;;;;;;4998325;28;20465;-75
2022/06/03 00:13:16;;;;;;;12.40;9.00;;;14.50;65.90;;;;;;4999657;28;20050;-75
2022/06/03 00:16:31;;;;;;;14.02;9.57;;;14.40;65.60;;;;;;5003238;28;20057;-75
2022/06/03 00:19:12;;;;;;;13.48;9.93;;;14.40;65.40;;;;;;4967251;28;20034;-75
2022/06/03 00:21:47;;;;;;;12.82;9.32;;;14.30;65.30;;;;;;5001053;28;20128;-75
2022/06/03 00:24:46;;;;;;;13.77;9.75;;;14.30;65.30;;;;;;4996492;28;20042;-75
2022/06/03 00:27:43;;;;;;;13.65;9.68;;;14.20;65.30;;;;;;4994696;28;20038;-75
2022/06/03 00:30:44;;;;;;;13.77;9.23;;;14.20;65.10;;;;;;4998946;28;20080;-75
2022/06/03 00:33:40;;;;;;;11.38;8.50;;;14.10;65.00;;;;;;4989936;28;20046;-76
2022/06/03 00:36:38;;;;;;;11.40;8.35;;;14.20;64.90;;;;;;5000574;28;20053;-75
2022/06/03 00:39:32;;;;;;;13.73;8.43;;;14.20;64.90;;;;;;4999448;28;20405;-75
2022/06/03 00:42:08;;;;;;;12.70;8.43;;;14.20;64.40;;;;;;5002502;28;20054;-75
2022/06/03 00:44:36;;;;;;;12.63;9.30;;;14.10;64.20;;;;;;5003462;28;20161;-75
2022/06/03 00:47:53;;;;;;;13.98;8.90;;;14.20;64.00;;;;;;4997009;28;20129;-75
2022/06/03 00:50:42;;;;;;;12.35;9.32;;;14.20;63.90;;;;;;4978340;28;20512;-75
2022/06/03 00:53:33;;;;;;;11.55;9.48;;;14.20;63.60;;;;;;5001501;28;20050;-75
2022/06/03 00:56:17;;;;;;;13.40;9.23;;;14.30;63.20;;;;;;5033146;28;20681;-75
2022/06/03 00:59:14;;;;;;;12.55;9.65;;;14.40;63.00;;;;;;5000846;28;20045;-75
2022/06/03 01:02:13;;;;;;;13.00;8.70;;;14.50;62.90;;;;;;5002437;28;20548;-75
2022/06/03 01:04:55;;;;;;;11.60;8.93;;;14.50;62.70;;;;;;5003376;28;20041;-75
2022/06/03 01:07:36;;;;;;;10.90;8.25;;;14.60;62.40;;;;;;5000026;28;20084;-75
2022/06/03 01:10:05;;;;;;;12.93;8.82;;;14.50;62.40;;;;;;5000625;28;20034;-76
2022/06/03 01:13:05;;;;;;;13.30;9.25;;;14.60;62.20;;;;;;5005577;28;20037;-75
2022/06/03 01:15:36;;;;;;;12.52;9.25;;;14.60;62.30;;;;;;5000069;28;20562;-75
2022/06/03 01:18:32;;;;;;;12.90;8.82;;;14.60;62.40;;;;;;5003401;28;20397;-75
2022/06/03 01:21:06;;;;;;;13.75;8.90;;;14.60;62.40;;;;;;4999442;28;20076;-75
2022/06/03 01:24:01;;;;;;;13.20;9.02;;;14.60;62.20;;;;;;5002615;28;20450;-75
2022/06/03 01:26:54;;;;;;;13.15;9.15;;;14.60;62.30;;;;;;4996427;28;20057;-75
2022/06/03 01:29:29;;;;;;;12.65;8.48;;;14.60;62.40;;;;;;4993516;28;20140;-75
2022/06/03 01:32:22;;;;;;;12.35;9.35;;;14.60;62.40;;;;;;5005946;28;20053;-75
2022/06/03 01:34:54;;;;;;;11.80;8.57;;;14.60;62.50;;;;;;5010770;28;20049;-75
2022/06/03 01:37:45;;;;;;;11.85;9.60;;;14.60;62.60;;;;;;4997414;28;20605;-75
2022/06/03 01:40:38;;;;;;;11.63;8.55;;;14.60;62.50;;;;;;4997235;28;20049;-75
2022/06/03 01:43:35;;;;;;;11.68;8.85;;;14.60;62.70;;;;;;5000466;28;20045;-76
2022/06/03 01:46:28;;;;;;;12.15;9.55;;;14.60;62.80;;;;;;4998530;28;20414;-76
2022/06/03 01:48:56;;;;;;;11.43;8.88;;;14.60;62.90;;;;;;4999724;28;20042;-75
2022/06/03 01:51:31;;;;;;;11.88;8.85;;;14.50;63.10;;;;;;4999022;28;20074;-75
2022/06/03 01:54:37;;;;;;;11.60;9.20;;;14.50;63.10;;;;;;5002015;28;20123;-75
2022/06/03 01:57:33;;;;;;;11.70;8.77;;;14.50;63.20;;;;;;5004106;28;20053;-75
2022/06/03 02:00:05;;;;;;;14.25;9.52;;;14.50;63.10;;;;;;4996762;28;20057;-75
2022/06/03 02:02:52;;;;;;;12.90;9.35;;;14.50;63.10;;;;;;4997993;28;20468;-75
2022/06/03 02:05:36;;;;;;;11.75;8.90;;;14.50;63.30;;;;;;4993261;28;20045;-75
2022/06/03 02:08:20;;;;;;;12.88;9.80;;;14.50;63.40;;;;;;5002455;28;20034;-75
2022/06/03 02:10:49;;;;;;;13.63;9.27;;;14.60;63.10;;;;;;5003929;28;20049;-75
2022/06/03 02:13:33;;;;;;;10.50;8.43;;;14.60;63.30;;;;;;5009067;28;20073;-75
2022/06/03 02:16:35;;;;;;;11.55;8.98;;;14.60;63.40;;;;;;5005320;28;20488;-75
2022/06/03 02:19:20;;;;;;;10.45;8.98;;;14.60;63.30;;;;;;5001706;28;20030;-76
2022/06/03 02:22:16;;;;;;;13.65;9.13;;;14.60;63.20;;;;;;4990551;28;20141;-75
2022/06/03 02:24:58;;;;;;;12.02;8.55;;;14.60;63.50;;;;;;4996344;28;20054;-77
2022/06/03 02:27:27;;;;;;;11.57;9.35;;;14.60;63.60;;;;;;4990204;28;20109;-75
2022/06/03 02:30:26;;;;;;;11.60;8.65;;;14.50;63.80;;;;;;4990611;28;20034;-75
2022/06/03 02:33:27;;;;;;;12.43;9.40;;;14.60;64.00;;;;;;4993886;28;20042;-75
2022/06/03 02:36:11;;;;;;;11.45;8.82;;;14.60;63.90;;;;;;4993629;28;20038;-75
2022/06/03 02:38:58;;;;;;;10.65;8.98;;;14.60;63.90;;;;;;4993808;28;20363;-75
2022/06/03 02:42:10;;;;;;;10.95;8.55;;;14.60;63.80;;;;;;4993917;28;20038;-75
2022/06/03 02:45:12;;;;;;;11.23;8.88;;;14.60;63.80;;;;;;5027374;28;20366;-75
2022/06/03 02:48:01;;;;;;;11.95;8.70;;;14.60;63.70;;;;;;4998879;28;20282;-75
2022/06/03 02:50:54;;;;;;;9.98;8.52;;;14.60;63.70;;;;;;4992401;28;20038;-75
2022/06/03 02:53:28;;;;;;;11.02;8.30;;;14.60;63.80;;;;;;4983217;28;20046;-75
2022/06/03 02:56:32;;;;;;;10.32;8.77;;;14.60;63.90;;;;;;4979615;28;20681;-75
2022/06/03 02:59:25;;;;;;;9.93;8.60;;;14.60;63.60;;;;;;4970021;28;20560;-75
2022/06/03 03:01:54;;;;;;;12.10;8.88;;;14.60;63.80;;;;;;4979030;28;20035;-75
2022/06/03 03:04:52;;;;;;;11.05;8.57;;;14.60;63.90;;;;;;4984465;28;20050;-74
2022/06/03 03:07:52;;;;;;;11.02;8.75;;;14.60;64.10;;;;;;5002406;28;20022;-75
2022/06/03 03:10:30;;;;;;;11.38;8.50;;;14.60;64.00;;;;;;4996811;28;20072;-75
2022/06/03 03:12:59;;;;;;;11.60;8.90;;;14.60;64.20;;;;;;4998876;28;20042;-75
2022/06/03 03:15:46;;;;;;;11.07;8.60;;;14.60;64.30;;;;;;4997217;28;20068;-75
2022/06/03 03:18:51;;;;;;;9.90;8.27;;;14.60;64.30;;;;;;4998526;28;20046;-75
2022/06/03 03:21:52;;;;;;;11.65;8.63;;;14.50;64.40;;;;;;4995136;28;20038;-75
2022/06/03 03:24:27;;;;;;;10.90;8.02;;;14.50;64.60;;;;;;4992776;28;20116;-75
2022/06/03 03:27:14;;;;;;;11.55;8.48;;;14.50;64.80;;;;;;4995447;28;20716;-75
2022/06/03 03:29:46;;;;;;;10.43;9.00;;;14.40;64.70;;;;;;4991739;28;20038;-75
2022/06/03 03:32:29;;;;;;;10.95;9.38;;;14.40;64.90;;;;;;4995741;28;20037;-75
2022/06/03 03:35:20;;;;;;;9.57;7.65;;;14.40;64.80;;;;;;5010575;28;20746;-75
2022/06/03 03:38:13;;;;;;;11.40;8.93;;;14.40;65.10;;;;;;4993775;28;20061;-75
2022/06/03 03:41:00;;;;;;;11.43;9.27;;;14.40;64.90;;;;;;4993190;28;20047;-75
2022/06/03 03:43:54;;;;;;;12.18;9.10;;;14.30;65.20;;;;;;4990265;28;20073;-75
2022/06/03 03:46:46;;;;;;;11.55;9.82;;;14.30;65.30;;;;;;4991936;28;20049;-74
2022/06/03 03:49:39;;;;;;;12.20;9.32;;;14.30;65.50;;;;;;4991047;28;20049;-75
2022/06/03 03:52:37;;;;;;;13.25;8.98;;;14.20;65.50;;;;;;4992264;28;20061;-74
2022/06/03 03:55:36;;;;;;;12.95;9.73;;;14.20;65.80;;;;;;4992431;28;20045;-75
2022/06/03 03:58:40;;;;;;;11.98;9.57;;;14.20;65.70;;;;;;4991504;28;20060;-75
2022/06/03 04:01:54;;;;;;;12.23;9.70;;;14.10;66.20;;;;;;4996379;28;20117;-75
2022/06/03 04:04:56;;;;;;;11.98;9.88;;;14.10;66.30;;;;;;4959900;28;20141;-75
2022/06/03 04:07:38;;;;;;;11.75;9.23;;;14.00;66.40;;;;;;4997771;28;20046;-75
2022/06/03 04:10:19;;;;;;;11.82;9.93;;;14.00;66.70;;;;;;4996170;28;20034;-75
2022/06/03 04:12:53;;;;;;;11.70;9.10;;;14.00;66.70;;;;;;5000552;28;20034;-75
2022/06/03 04:15:50;;;;;;;13.57;10.00;;;14.00;66.90;;;;;;5001683;28;20046;-75
2022/06/03 04:18:40;;;;;;;11.23;9.10;;;14.10;66.50;;;;;;5001935;28;20054;-75
2022/06/03 04:21:30;;;;;;;11.98;10.05;;;14.10;66.60;;;;;;4993518;28;20042;-75
2022/06/03 04:24:07;;;;;;;10.73;9.10;;;14.10;66.60;;;;;;4994883;28;20077;-75
2022/06/03 04:26:36;;;;;;;13.15;10.00;;;14.10;66.40;;;;;;5006267;28;20136;-75
2022/06/03 04:29:39;;;;;;;12.23;10.75;;;14.20;66.10;;;;;;4989937;28;20043;-77
2022/06/03 04:32:04;;;;;;;12.00;10.20;;;14.20;66.30;;;;;;4987660;28;20396;-75
2022/06/03 04:35:08;;;;;;;12.10;9.82;;;14.20;66.30;;;;;;4991439;28;20050;-76
2022/06/03 04:38:10;;;;;;;13.95;10.52;;;14.40;65.90;;;;;;4989574;28;20638;-76
2022/06/03 04:41:14;;;;;;;12.32;10.00;;;14.60;65.30;;;;;;5007520;28;20528;-76
2022/06/03 04:43:43;;;;;;;12.75;9.95;;;14.60;64.80;;;;;;4991795;28;20041;-76
2022/06/03 04:46:42;;;;;;;12.45;10.05;;;14.60;65.00;;;;;;4993956;28;20080;-75
2022/06/03 04:49:53;;;;;;;14.50;10.45;;;14.60;65.20;;;;;;4990190;28;20489;-76
2022/06/03 04:52:31;;;;;;;12.60;10.07;;;14.60;65.20;;;;;;4996088;28;20397;-76
2022/06/03 04:55:24;;;;;;;13.82;10.88;;;14.70;65.40;;;;;;4997378;28;20100;-76
2022/06/03 04:58:27;;;;;;;11.20;9.40;;;14.60;65.30;;;;;;4991238;28;20046;-76
2022/06/03 05:01:11;;;;;;;15.65;10.25;;;14.90;65.20;;;;;;4994266;28;20042;-74
2022/06/03 05:04:28;;;;;;;13.57;10.30;;;15.00;64.70;;;;;;5025363;28;20069;-74
2022/06/03 05:07:05;;;;;;;11.52;9.73;;;15.10;64.00;;;;;;4956992;28;20508;-74
2022/06/03 05:09:57;;;;;;;11.80;10.32;;;15.20;64.00;;;;;;4989467;28;20041;-74
2022/06/03 05:12:42;;;;;;;13.73;10.48;;;15.20;63.80;;;;;;4998490;28;20034;-74
2022/06/03 05:15:36;;;;;;;14.10;9.68;;;15.50;62.90;;;;;;4992689;28;20125;-74
2022/06/03 05:18:01;;;;;;;13.63;10.50;;;15.90;61.50;;;;;;4993701;28;20066;-75
2022/06/03 05:20:52;;;;;;;11.48;9.27;;;16.30;60.50;;;;;;4990021;28;20556;-74
2022/06/03 05:23:33;;;;;;;15.77;10.02;;;16.60;59.00;;;;;;4986729;28;20090;-75
2022/06/03 05:26:40;;;;;;;13.68;9.32;;;16.30;60.10;;;;;;5001659;28;20233;-74
2022/06/03 05:29:31;;;;;;;9.85;8.52;;;17.60;57.50;;;;;;4975172;28;20120;-72
2022/06/03 05:32:15;;;;;;;11.25;8.45;;;19.50;51.60;;;;;;4996446;28;20403;-72
2022/06/03 05:35:15;;;;;;;11.88;8.50;;;21.20;47.60;;;;;;4993949;28;20065;-72
2022/06/03 05:38:06;;;;;;;11.88;8.70;;;22.20;44.30;;;;;;4990506;28;20061;-73
2022/06/03 05:41:00;;;;;;;10.35;8.23;;;22.90;43.20;;;;;;4993032;28;20050;-73
2022/06/03 05:43:49;;;;;;;9.63;7.45;;;23.00;42.50;;;;;;4993089;28;20434;-73
2022/06/03 05:46:49;;;;;;;12.30;8.35;;;23.10;42.60;;;;;;4999080;28;20152;-73
2022/06/03 05:49:31;;;;;;;12.07;8.60;;;22.90;42.40;;;;;;4999772;28;20156;-73
2022/06/03 05:52:19;;;;;;;9.80;8.32;;;21.60;44.90;;;;;;4998705;28;20188;-74
2022/06/03 05:55:04;;;;;;;13.25;9.27;;;21.20;46.00;;;;;;4999622;28;20042;-72
2022/06/03 05:57:40;;;;;;;14.27;9.90;;;19.90;49.40;;;;;;4997824;28;20498;-73
2022/06/03 06:00:15;;;;;;;11.35;8.77;;;19.00;51.70;;;;;;4994239;28;20033;-73
2022/06/03 06:03:02;;;;;;;14.25;9.90;;;18.10;54.10;;;;;;5004383;28;20042;-72
2022/06/03 06:05:39;;;;;;;12.23;9.20;;;17.60;55.50;;;;;;5000704;28;20044;-72
2022/06/03 06:08:14;;;;;;;11.38;8.82;;;17.60;56.20;;;;;;4996200;28;20035;-73
2022/06/03 06:11:12;;;;;;;12.20;8.98;;;17.60;56.70;;;;;;5003109;28;20119;-72
2022/06/03 06:14:00;;;;;;;13.43;8.95;;;17.70;56.30;;;;;;5005709;28;20038;-74
2022/06/03 06:16:45;;;;;;;11.15;9.65;;;17.40;56.50;;;;;;5004267;28;20398;-73
2022/06/03 06:19:35;;;;;;;10.43;9.20;;;17.50;56.50;;;;;;5003432;28;20049;-73
2022/06/03 06:22:09;;;;;;;12.07;9.48;;;17.50;56.90;;;;;;4997664;28;20466;-73
2022/06/03 06:24:35;;;;;;;12.57;10.30;;;17.50;56.90;;;;;;4993935;28;20896;-72
2022/06/03 06:27:16;;;;;;;12.02;9.32;;;17.60;57.40;;;;;;5002394;28;20052;-72
2022/06/03 06:30:00;;;;;;;12.68;9.73;;;17.80;56.60;;;;;;5004098;28;20555;-72
2022/06/03 06:32:41;;;;;;;11.27;9.32;;;18.00;55.80;;;;;;5003388;28;20062;-72
2022/06/03 06:35:46;;;;;;;11.20;8.82;;;18.00;55.40;;;;;;5000255;28;20432;-73
2022/06/03 06:38:31;;;;;;;10.45;9.10;;;18.00;55.70;;;;;;4987227;28;20057;-73
2022/06/03 06:41:02;;;;;;;;;;;18.10;55.70;;;;;;5000988;28;20402;-74
2022/06/03 06:43:50;;;;;;;11.20;9.48;;;18.00;55.80;;;;;;4997956;28;19924;-73
2022/06/03 06:46:56;;;;;;;11.20;9.18;;;18.10;55.10;;;;;;4997937;28;20042;-72
2022/06/03 06:49:38;;;;;;;13.20;9.93;;;18.10;54.70;;;;;;4996072;28;20041;-75
2022/06/03 06:52:16;;;;;;;11.68;9.20;;;18.10;55.70;;;;;;5010611;28;20508;-74
2022/06/03 06:54:51;;;;;;;12.90;9.68;;;18.10;56.10;;;;;;5010506;28;20045;-73
2022/06/03 06:57:36;;;;;;;13.10;9.85;;;17.80;56.10;;;;;;5004180;28;20046;-74
2022/06/03 07:00:02;;;;;;;11.20;9.38;;;17.70;56.90;;;;;;5010366;28;20378;-73
2022/06/03 07:02:55;;;;;;;11.93;9.02;;;17.80;56.80;;;;;;5005424;28;20042;-74
2022/06/03 07:05:24;;;;;;;10.48;8.52;;;17.90;56.60;;;;;;5004409;28;20638;-74
2022/06/03 07:08:07;;;;;;;11.80;9.98;;;17.90;56.70;;;;;;5009102;28;20046;-74
2022/06/03 07:10:57;;;;;;;14.15;8.68;;;18.10;56.30;;;;;;5000459;28;20122;-74
2022/06/03 07:13:32;;;;;;;11.52;9.10;;;18.60;56.10;;;;;;5004627;28;20053;-73
2022/06/03 07:16:08;;;;;;;11.68;8.95;;;18.80;55.00;;;;;;5001444;28;20046;-72
2022/06/03 07:21:31;;;;;;;11.50;8.85;;;19.10;54.10;;;;;;4993880;28;20093;-73
2022/06/03 07:24:07;;;;;;;11.10;8.38;;;19.10;53.20;;;;;;5011666;28;20026;-72
2022/06/03 07:26:44;;;;;;;11.65;9.07;;;19.40;53.40;;;;;;5003550;28;20564;-73
2022/06/03 07:29:16;;;;;;;11.90;8.75;;;19.40;52.30;;;;;;5000640;28;20037;-73
2022/06/03 07:31:53;;;;;;;10.48;8.65;;;19.10;53.30;;;;;;4998324;28;20046;-72
2022/06/03 07:34:27;;;;;;;10.13;8.32;;;19.40;54.40;;;;;;5000720;28;20037;-72
2022/06/03 07:37:17;;;;;;;10.65;9.32;;;19.70;51.50;;;;;;5029585;28;20113;-73
2022/06/03 07:39:49;;;;;;;15.38;8.77;;;19.60;52.00;;;;;;4995460;28;20389;-74
2022/06/03 07:42:26;;;;;;;10.75;7.72;;;19.70;51.60;;;;;;4992296;28;20041;-73
2022/06/03 07:45:42;;;;;;;11.82;7.80;;;19.80;52.10;;;;;;4998915;28;20030;-73
2022/06/03 07:48:18;;;;;;;11.90;8.00;;;20.10;51.90;;;;;;4960302;28;20406;-73
2022/06/03 07:51:00;;;;;;;13.95;9.65;;;20.50;51.10;;;;;;4998169;28;20042;-74
2022/06/03 07:53:43;;;;;;;11.55;10.10;;;20.60;50.90;;;;;;4991168;28;20046;-74
2022/06/03 07:56:10;;;;;;;13.60;9.13;;;20.30;52.00;;;;;;4991771;28;20404;-74
2022/06/03 07:58:37;;;;;;;14.43;9.55;;;20.40;52.20;;;;;;4994677;28;20117;-73
2022/06/03 08:01:19;;;;;;;14.82;9.80;;;20.40;50.10;;;;;;4991407;28;20458;-73
2022/06/03 08:03:47;;;;;;;12.30;8.90;;;20.40;51.50;;;;;;5000647;28;20501;-74
2022/06/03 08:06:13;;;;;;;9.98;8.00;;;20.50;50.40;;;;;;4990273;28;20045;-73
2022/06/03 08:11:33;;;;;;;10.55;8.98;;;20.60;49.50;;;;;;4989517;28;20383;-73
2022/06/03 08:14:01;;;;;;;11.80;8.90;;;20.80;51.20;;;;;;4990521;28;20088;-74
2022/06/03 08:16:33;;;;;;;10.77;8.73;;;20.70;52.20;;;;;;5006581;28;20421;-73
2022/06/03 08:19:18;;;;;;;14.27;10.30;;;20.90;50.60;;;;;;4993108;28;20034;-74
2022/06/03 08:21:53;;;;;;;12.15;8.80;;;21.00;50.10;;;;;;4998553;28;20052;-73
2022/06/03 08:24:25;;;;;;;20.73;9.65;;;20.70;50.40;;;;;;4996058;28;20188;-74
2022/06/03 08:26:58;;;;;;;13.93;9.90;;;21.00;50.30;;;;;;4994646;28;20081;-73
2022/06/03 08:29:41;;;;;;;11.45;7.53;;;21.30;49.30;;;;;;4985665;28;20053;-74
2022/06/03 08:32:12;;;;;;;12.80;8.38;;;21.70;49.90;;;;;;5000054;28;20026;-73
2022/06/03 08:34:44;;;;;;;13.43;8.77;;;21.70;49.30;;;;;;4994073;28;20038;-74
2022/06/03 08:37:15;;;;;;;12.18;8.35;;;21.90;49.00;;;;;;4988819;28;20050;-72
2022/06/03 08:39:42;;;;;;;12.05;8.77;;;22.10;50.00;;;;;;5002309;28;20092;-73
2022/06/03 08:42:29;;;;;;;13.73;9.27;;;22.10;46.80;;;;;;5000048;28;20022;-73
2022/06/03 08:45:03;;;;;;;9.60;7.88;;;21.60;48.20;;;;;;4993678;28;20042;-74
2022/06/03 08:47:41;;;;;;;12.40;8.40;;;21.70;48.40;;;;;;5003577;28;20474;-74
2022/06/03 08:50:21;;;;;;;11.65;8.35;;;21.80;48.20;;;;;;4992965;28;20045;-74
2022/06/03 08:53:03;;;;;;;11.77;7.65;;;21.80;48.40;;;;;;4992996;28;20037;-73
2022/06/03 08:55:38;;;;;;;11.20;8.25;;;22.00;46.40;;;;;;4997206;28;20030;-73
2022/06/03 08:58:18;;;;;;;10.07;7.68;;;21.60;48.60;;;;;;4993208;28;20380;-75
2022/06/03 09:01:10;;;;;;;11.20;8.07;;;22.10;47.10;;;;;;4997007;28;20054;-73
2022/06/03 09:03:56;;;;;;;10.18;7.80;;;22.40;47.70;;;;;;5003928;28;20033;-73
2022/06/03 09:06:59;;;;;;;12.57;8.35;;;22.40;46.90;;;;;;4994251;28;20031;-72
2022/06/03 09:09:43;;;;;;;10.35;7.63;;;22.50;47.20;;;;;;4993846;28;20027;-72
2022/06/03 09:12:22;;;;;;;10.23;7.35;;;23.00;46.30;;;;;;4997385;28;20128;-73
2022/06/03 09:14:50;;;;;;;10.27;7.05;;;23.30;46.40;;;;;;5001742;28;20122;-72
2022/06/03 09:17:25;;;;;;;10.52;8.07;;;23.60;44.40;;;;;;5004713;28;20533;-72
2022/06/03 09:19:54;;;;;;;9.43;7.20;;;23.50;43.20;;;;;;5003863;28;20061;-72
2022/06/03 09:22:25;;;;;;;9.60;6.72;;;23.50;45.10;;;;;;4994378;28;20026;-71
2022/06/03 09:24:55;;;;;;;9.80;6.97;;;23.80;44.30;;;;;;4999645;28;20050;-72
2022/06/03 09:27:21;;;;;;;10.02;7.07;;;24.10;43.90;;;;;;5003699;28;20037;-72
2022/06/03 09:29:51;;;;;;;11.48;7.30;;;24.30;42.70;;;;;;4994613;28;20378;-71
2022/06/03 09:32:19;;;;;;;10.57;6.68;;;24.10;41.90;;;;;;4998768;28;20042;-71
2022/06/03 09:34:49;;;;;;;10.35;6.05;;;23.90;43.00;;;;;;5000920;28;20025;-72
2022/06/03 09:37:37;;;;;;;9.40;6.07;;;24.10;43.30;;;;;;5004929;28;20058;-72
2022/06/03 09:40:09;;;;;;;11.32;6.55;;;24.60;42.80;;;;;;5004759;28;20113;-72
2022/06/03 09:42:36;;;;;;;11.70;6.22;;;24.50;42.40;;;;;;4997451;28;20049;-71
2022/06/03 09:45:05;;;;;;;7.95;5.80;;;24.40;43.30;;;;;;5006228;28;20125;-71
2022/06/03 09:47:32;;;;;;;9.85;6.40;;;24.40;43.90;;;;;;5009101;28;20044;-71
2022/06/03 09:49:58;;;;;;;11.32;7.05;;;24.50;42.60;;;;;;5007235;28;20030;-72
2022/06/03 09:52:26;;;;;;;10.60;5.28;;;24.60;41.90;;;;;;5005238;28;20057;-72
2022/06/03 09:54:55;;;;;;;10.02;5.53;;;24.70;42.20;;;;;;5012302;28;20194;-72
2022/06/03 09:57:38;;;;;;;7.93;5.03;;;25.20;42.20;;;;;;5006606;28;20041;-72
2022/06/03 10:00:23;;;;;;;13.18;6.30;;;25.30;40.80;;;;;;5003829;28;20071;-72
2022/06/03 10:02:49;;;;;;;9.48;5.40;;;25.40;40.40;;;;;;5001031;28;20037;-71
2022/06/03 10:05:18;;;;;;;8.60;5.10;;;25.50;40.70;;;;;;5018781;28;20069;-73
2022/06/03 10:07:45;;;;;;;9.70;4.70;;;25.50;40.10;;;;;;5005660;28;20069;-73
2022/06/03 10:13:00;;;;;;;8.20;5.60;;;25.30;40.10;;;;;;5006239;28;20061;-75
2022/06/03 10:15:40;;;;;;;10.20;5.70;;;25.30;40.20;;;;;;5005215;28;20034;-74
2022/06/03 10:18:29;;;;;;;8.57;4.85;;;25.00;41.90;;;;;;5005112;28;20433;-74
2022/06/03 10:20:58;;;;;;;8.30;4.97;;;25.20;39.50;;;;;;5013951;28;20385;-74
2022/06/03 10:23:28;;;;;;;7.90;3.90;;;25.30;40.00;;;;;;5000983;28;20038;-74
2022/06/03 10:25:59;;;;;;;9.60;4.25;;;25.00;38.80;;;;;;5009457;28;20046;-74
2022/06/03 10:28:30;;;;;;;7.10;3.80;;;25.00;40.10;;;;;;5004356;28;20034;-73
2022/06/03 10:31:06;;;;;;;8.20;4.43;;;25.40;40.70;;;;;;5005886;28;20477;-74
2022/06/03 10:33:33;;;;;;;6.68;4.07;;;25.80;38.60;;;;;;5000771;28;20033;-73
2022/06/03 10:36:00;;;;;;;5.93;3.70;;;25.60;39.40;;;;;;5005754;28;20042;-73
2022/06/03 10:38:29;;;;;;;5.45;3.42;;;26.00;39.80;;;;;;4998469;28;20041;-74
2022/06/03 10:40:56;;;;;;;6.78;3.72;;;26.50;39.30;;;;;;4998404;28;20257;-73
2022/06/03 10:43:30;;;;;;;6.85;3.58;;;26.60;37.20;;;;;;5003961;28;20040;-74
2022/06/03 10:46:08;;;;;;;;;;;26.80;36.70;;;;;;5006144;28;20046;-73
2022/06/03 10:48:34;;;;;;;6.03;3.03;;;26.90;36.70;;;;;;5001477;28;19922;-74
2022/06/03 10:51:17;;;;;;;7.88;2.97;;;26.80;36.60;;;;;;4999579;28;20119;-73
2022/06/03 11:02:01;;;;;;;7.50;3.50;;;27.60;35.90;;;;;;5001817;28;20480;-73
2022/06/03 11:04:37;;;;;;;6.60;3.10;;;27.40;35.60;;;;;;5002549;28;20355;-74
2022/06/03 11:07:24;;;;;;;8.45;3.15;;;27.30;35.90;;;;;;5005579;28;20040;-73
2022/06/03 11:09:55;;;;;;;4.88;2.97;;;27.10;35.60;;;;;;5002417;28;20030;-75
2022/06/03 11:12:26;;;;;;;7.85;3.05;;;27.10;35.60;;;;;;5006276;28;20034;-76
2022/06/03 11:14:52;;;;;;;5.10;2.83;;;27.40;35.70;;;;;;5002220;28;20026;-76
2022/06/03 11:17:33;;;;;;;6.13;2.92;;;27.20;35.70;;;;;;4998204;28;20046;-74
2022/06/03 11:19:59;;;;;;;5.88;2.30;;;27.30;35.80;;;;;;4999747;28;20514;-73
2022/06/03 11:22:40;;;;;;;7.88;3.03;;;27.40;35.50;;;;;;4994769;28;20026;-73
2022/06/03 11:25:26;;;;;;;5.70;2.53;;;27.50;36.00;;;;;;4991739;28;20054;-74
2022/06/03 11:27:57;;;;;;;5.50;2.72;;;28.00;35.40;;;;;;5004710;28;20085;-72
2022/06/03 11:30:34;;;;;;;4.88;2.80;;;28.00;35.90;;;;;;5001991;28;20160;-74
2022/06/03 11:33:09;;;;;;;5.38;2.90;;;28.20;35.30;;;;;;4999154;28;20049;-73
2022/06/03 11:35:40;;;;;;;7.80;3.42;;;28.20;35.10;;;;;;4993754;28;20030;-72
2022/06/03 11:38:08;;;;;;;6.47;3.13;;;28.20;34.30;;;;;;4998193;28;20140;-74
2022/06/03 11:40:39;;;;;;;7.47;3.00;;;28.00;35.10;;;;;;4998971;28;20034;-73
2022/06/03 11:43:12;;;;;;;5.85;3.05;;;28.10;35.50;;;;;;5001899;28;20056;-75
2022/06/03 11:45:50;;;;;;;4.50;2.58;;;28.30;34.60;;;;;;4998556;28;20049;-73
2022/06/03 11:48:25;;;;;;;5.43;2.25;;;28.60;34.80;;;;;;5000599;28;20045;-72
2022/06/03 11:50:51;;;;;;;4.68;2.70;;;28.20;34.80;;;;;;5006471;28;20128;-71
2022/06/03 11:53:24;;;;;;;5.00;2.53;;;27.80;34.20;;;;;;5003101;28;20041;-73
2022/06/03 11:55:52;;;;;;;3.38;2.33;;;28.10;35.10;;;;;;5005884;28;20137;-73
2022/06/03 11:58:56;;;;;;;6.32;2.70;;;28.10;36.10;;;;;;5001216;28;20057;-73
2022/06/03 12:01:49;;;;;;;6.40;2.50;;;28.50;34.30;;;;;;5035905;28;20046;-73
2022/06/03 12:04:26;;;;;;;4.15;2.38;;;28.60;34.20;;;;;;5001778;28;20148;-73
2022/06/03 12:07:07;;;;;;;4.82;2.30;;;28.80;34.20;;;;;;5003008;28;20485;-73
2022/06/03 12:09:48;;;;;;;4.43;2.50;;;29.10;33.20;;;;;;5014260;28;20046;-73
2022/06/03 12:15:30;;;;;;;10.90;2.72;;;29.40;32.30;;;;;;4998420;28;20223;-73
2022/06/03 12:18:11;;;;;;;5.45;2.65;;;29.00;32.40;;;;;;5001522;28;20038;-72
2022/06/03 12:20:47;;;;;;;4.47;2.10;;;29.00;32.30;;;;;;4995833;28;20038;-72
2022/06/03 12:23:13;;;;;;;4.57;2.50;;;29.10;31.60;;;;;;4991751;28;20054;-71
2022/06/03 12:25:45;;;;;;;5.50;2.22;;;28.60;31.70;;;;;;4994458;28;20046;-75
2022/06/03 12:28:24;;;;;;;5.55;2.38;;;28.00;33.90;;;;;;4992416;28;20049;-74
2022/06/03 12:30:56;;;;;;;5.40;2.50;;;28.30;33.40;;;;;;4989675;28;20065;-74
2022/06/03 12:33:25;;;;;;;6.50;2.40;;;28.40;33.80;;;;;;4991905;28;20377;-73
2022/06/03 12:36:38;;;;;;;6.72;2.70;;;28.70;32.40;;;;;;4994032;28;20446;-75
2022/06/03 12:39:08;;;;;;;4.95;2.47;;;28.50;32.80;;;;;;4940984;28;20130;-75
2022/06/03 12:41:46;;;;;;;8.55;3.30;;;28.30;34.00;;;;;;4941195;28;20383;-74
2022/06/03 12:44:44;;;;;;;7.20;2.70;;;28.30;33.80;;;;;;4970152;28;20049;-74
2022/06/03 12:47:32;;;;;;;5.80;2.50;;;28.90;32.40;;;;;;4990472;28;20049;-75
2022/06/03 12:50:04;;;;;;;5.90;2.40;;;28.60;32.20;;;;;;4991476;28;20038;-74
2022/06/03 12:52:29;;;;;;;5.65;2.20;;;28.80;31.50;;;;;;4995781;28;20038;-73
2022/06/03 12:55:19;;;;;;;4.70;2.38;;;29.00;31.30;;;;;;4989949;28;20101;-75
2022/06/03 12:57:49;;;;;;;3.88;2.30;;;29.00;31.50;;;;;;5003478;28;20095;-74
2022/06/03 13:00:18;;;;;;;5.55;2.10;;;28.50;30.90;;;;;;5000057;28;20045;-74
2022/06/03 13:03:01;;;;;;;3.80;2.25;;;28.60;31.80;;;;;;4995781;28;20422;-73
2022/06/03 13:05:34;;;;;;;5.03;2.10;;;29.00;32.50;;;;;;4996781;28;20120;-75
2022/06/03 13:08:01;;;;;;;4.63;2.67;;;29.40;32.30;;;;;;4993665;28;20371;-73
2022/06/03 13:10:30;;;;;;;8.50;2.42;;;29.40;31.20;;;;;;5003545;28;20041;-74
2022/06/03 13:13:24;;;;;;;4.20;2.22;;;29.60;31.40;;;;;;4998267;28;20065;-73
2022/06/03 13:15:51;;;;;;;6.53;2.45;;;29.60;30.90;;;;;;5000089;28;20173;-73
2022/06/03 13:18:41;;;;;;;5.95;2.30;;;29.80;30.70;;;;;;5011259;28;20029;-73
2022/06/03 13:21:07;;;;;;;5.38;2.30;;;29.70;30.50;;;;;;4995980;28;20039;-73
2022/06/03 13:24:27;;;;;;;5.40;2.35;;;29.70;30.10;;;;;;5001851;28;20056;-73
2022/06/03 13:27:11;;;;;;;5.53;2.25;;;29.60;30.30;;;;;;4939300;28;20444;-73
2022/06/03 13:29:50;;;;;;;4.53;2.20;;;29.30;29.10;;;;;;5009239;28;20430;-74
2022/06/03 13:32:39;;;;;;;3.45;2.00;;;29.00;30.80;;;;;;4999329;28;20245;-73
2022/06/03 13:35:32;;;;;;;3.42;1.60;;;29.10;30.40;;;;;;5002860;28;20038;-74
2022/06/03 13:38:16;;;;;;;4.25;1.90;;;29.00;29.20;;;;;;4998210;28;20053;-74
2022/06/03 13:42:57;;;;;;;9.45;2.20;;;28.70;29.70;;;;;;4988141;28;20050;-74
2022/06/03 13:43:29;;;;;;;6.05;1.88;;;28.60;30.60;;;;;;5000561;28;20030;-73
2022/06/03 13:46:09;;;;;;;3.85;1.90;;;28.90;29.30;;;;;;5002745;28;20092;-76
2022/06/03 13:48:56;;;;;;;3.10;1.80;;;29.20;29.50;;;;;;5030871;28;20147;-74
2022/06/03 13:51:26;;;;;;;4.55;2.00;;;29.30;29.70;;;;;;4991332;28;20568;-74
2022/06/03 13:53:56;;;;;;;3.20;1.77;;;28.90;29.30;;;;;;4993813;28;20101;-74
2022/06/03 13:56:26;;;;;;;3.90;1.88;;;28.70;30.90;;;;;;4998165;28;20058;-74
2022/06/03 13:58:52;;;;;;;5.22;2.30;;;29.00;30.60;;;;;;4995347;28;20049;-74
2022/06/03 14:01:31;;;;;;;4.63;2.03;;;29.40;30.70;;;;;;5003893;28;20060;-73
2022/06/03 14:04:13;;;;;;;3.10;1.70;;;29.20;29.20;;;;;;4996013;28;20026;-74
2022/06/03 14:06:52;;;;;;;4.97;1.90;;;29.30;29.10;;;;;;4996235;28;20038;-74
2022/06/03 14:09:20;;;;;;;4.80;1.98;;;29.50;28.70;;;;;;4991621;28;20109;-73
2022/06/03 14:11:56;;;;;;;6.82;2.10;;;29.10;28.00;;;;;;5001210;28;20038;-72
2022/06/03 14:14:32;;;;;;;4.82;2.10;;;28.60;29.50;;;;;;4994809;28;20037;-71
2022/06/03 14:17:12;;;;;;;5.22;2.20;;;28.60;30.10;;;;;;4994483;28;20050;-72